Time;durP1;ratioP1;P1;durP2;ratioP2;P2;SDS_P1;SDS_P2;PMS_P1;PMS_P2;Temp;Humidity;BMP_temperature;BMP_pressure;BME280_temperature;BME280_humidity;BME280_pressure;Samples;Min_cycle;Max_cycle;Signal;HPM_P1;HPM_P2
2022/01/26 00:14:19;;;;;;;11.67;7.13;;;4.80;92.20;;;;;;20842588;28;20289;-64
2022/01/26 00:45:05;;;;;;;14.73;7.43;;;4.70;92.40;;;;;;20840595;28;20216;-65
2022/01/26 00:55:10;;;;;;;12.43;7.80;;;4.50;92.40;;;;;;20839748;28;20236;-64
2022/01/26 01:05:22;;;;;;;13.00;7.37;;;4.60;92.40;;;;;;20839328;28;20209;-62
2022/01/26 01:15:26;;;;;;;14.67;9.07;;;4.50;92.20;;;;;;20837743;28;20240;-65
2022/01/26 01:26:06;;;;;;;11.90;7.37;;;4.50;92.50;;;;;;20836055;28;20263;-63
2022/01/26 01:36:00;;;;;;;13.97;8.57;;;4.30;92.40;;;;;;20836280;28;20286;-63
2022/01/26 01:46:03;;;;;;;15.10;8.00;;;4.30;92.60;;;;;;20835977;28;20213;-63
2022/01/26 01:56:06;;;;;;;14.50;8.20;;;4.40;92.50;;;;;;20836006;28;20232;-63
2022/01/26 02:06:08;;;;;;;16.73;8.70;;;4.50;92.40;;;;;;20834156;28;20201;-64
2022/01/26 02:16:33;;;;;;;15.20;9.30;;;4.40;92.50;;;;;;20833231;28;20294;-62
2022/01/26 02:57:49;;;;;;;25.20;11.77;;;4.30;93.10;;;;;;20830878;28;20282;-63
2022/01/26 03:08:02;;;;;;;24.33;13.50;;;4.30;93.10;;;;;;20830348;28;20656;-66
2022/01/26 03:28:40;;;;;;;18.47;9.80;;;4.30;93.10;;;;;;20829572;28;20204;-65
2022/01/26 03:38:46;;;;;;;17.77;9.50;;;4.30;92.60;;;;;;20838214;28;20232;-62
2022/01/26 03:48:47;;;;;;;20.97;10.07;;;4.30;92.40;;;;;;20845149;28;20262;-64
2022/01/26 03:58:49;;;;;;;19.57;10.10;;;4.30;92.50;;;;;;20843916;28;20241;-62
2022/01/26 04:08:51;;;;;;;19.50;9.87;;;4.30;92.50;;;;;;20843283;28;20205;-63
2022/01/26 04:18:55;;;;;;;26.47;12.03;;;4.30;91.80;;;;;;20842882;28;20248;-63
2022/01/26 04:29:02;;;;;;;25.17;13.17;;;4.30;91.80;;;;;;20842042;28;20644;-63
2022/01/26 04:39:08;;;;;;;25.27;14.17;;;4.30;91.70;;;;;;20840922;28;20237;-64
2022/01/26 04:49:10;;;;;;;26.53;13.90;;;4.30;91.70;;;;;;20840066;28;20239;-63
2022/01/26 04:59:12;;;;;;;26.37;13.43;;;4.20;91.60;;;;;;20839428;28;20278;-63
2022/01/26 05:09:14;;;;;;;27.83;13.37;;;4.20;91.70;;;;;;20838793;28;20217;-65
2022/01/26 05:19:15;;;;;;;26.50;12.70;;;4.20;91.60;;;;;;20838211;28;20306;-64
2022/01/26 05:29:17;;;;;;;24.67;13.60;;;4.30;91.60;;;;;;20837277;28;20215;-64
2022/01/26 05:39:19;;;;;;;27.43;14.70;;;4.30;91.40;;;;;;20836002;28;20547;-62
2022/01/26 05:49:20;;;;;;;25.37;12.70;;;4.30;91.40;;;;;;20835279;28;20687;-63
2022/01/26 05:59:22;;;;;;;23.07;12.07;;;4.30;91.20;;;;;;20831619;28;20692;-64
2022/01/26 06:09:24;;;;;;;23.23;13.30;;;4.30;91.10;;;;;;20833682;28;20209;-66
2022/01/26 06:19:26;;;;;;;28.27;15.37;;;4.20;90.90;;;;;;20833075;28;20267;-69
2022/01/26 06:29:30;;;;;;;26.83;12.90;;;4.00;91.10;;;;;;20833960;28;20208;-63
2022/01/26 06:39:35;;;;;;;26.77;13.67;;;3.80;91.20;;;;;;20831425;28;20232;-63
2022/01/26 06:49:36;;;;;;;21.20;10.57;;;3.80;91.30;;;;;;20830452;28;20200;-65
2022/01/26 06:59:38;;;;;;;26.67;15.30;;;3.90;90.90;;;;;;20828539;28;20324;-64
2022/01/26 07:09:40;;;;;;;27.57;13.90;;;3.90;91.20;;;;;;20829290;28;20200;-62
2022/01/26 07:19:53;;;;;;;23.00;12.23;;;4.00;91.40;;;;;;20829354;28;20703;-64
2022/01/26 07:29:54;;;;;;;31.33;13.03;;;4.10;91.10;;;;;;20831736;28;20200;-63
2022/01/26 07:40:14;;;;;;;24.10;13.27;;;4.00;91.10;;;;;;20830621;28;20699;-63
2022/01/26 07:50:17;;;;;;;23.23;12.10;;;4.00;91.10;;;;;;20832940;28;20239;-63
2022/01/26 08:00:19;;;;;;;28.63;15.53;;;4.00;91.20;;;;;;20833342;28;20279;-64
2022/01/26 08:10:21;;;;;;;31.70;13.73;;;3.80;91.20;;;;;;20832238;28;20578;-63
2022/01/26 08:20:23;;;;;;;23.80;12.73;;;3.90;91.80;;;;;;20828343;28;20263;-65
2022/01/26 08:30:25;;;;;;;23.97;11.60;;;3.90;91.40;;;;;;20851231;28;20209;-64
2022/01/26 08:40:27;;;;;;;21.47;12.10;;;3.90;91.60;;;;;;20848133;28;20591;-70
2022/01/26 08:50:29;;;;;;;38.47;15.57;;;3.80;91.70;;;;;;20841180;28;20231;-68
2022/01/26 09:00:30;;;;;;;20.00;9.80;;;3.70;91.90;;;;;;20838294;28;20228;-66
2022/01/26 09:18:18;;;;;;;17.77;9.87;;;3.40;92.30;;;;;;21151135;27;20489;-64
2022/01/26 09:28:21;;;;;;;21.13;10.50;;;3.40;92.30;;;;;;21149536;28;20243;-64
2022/01/26 09:38:23;;;;;;;14.50;8.23;;;3.50;92.50;;;;;;21148464;28;20206;-66
2022/01/26 09:48:24;;;;;;;11.77;6.37;;;3.70;92.20;;;;;;21149186;28;20202;-64
2022/01/26 09:58:27;;;;;;;9.90;6.07;;;3.50;92.40;;;;;;21146728;28;20206;-64
2022/01/26 10:18:44;;;;;;;13.00;7.47;;;3.50;93.10;;;;;;21146487;28;20311;-62
2022/01/26 10:28:57;;;;;;;11.77;6.97;;;3.50;93.40;;;;;;21093759;28;20580;-63
2022/01/26 10:39:03;;;;;;;7.70;4.80;;;3.60;93.10;;;;;;21088070;28;20206;-63
2022/01/26 10:59:16;;;;;;;7.27;5.07;;;3.80;93.10;;;;;;21087218;28;20237;-64
2022/01/26 11:09:21;;;;;;;6.70;4.13;;;3.80;92.60;;;;;;21085112;28;20238;-65
2022/01/26 11:19:23;;;;;;;6.20;3.93;;;4.10;92.70;;;;;;21084462;28;20203;-71
2022/01/26 11:29:31;;;;;;;6.27;4.03;;;4.20;92.30;;;;;;21084002;28;20230;-64
2022/01/26 11:50:10;;;;;;;5.87;3.97;;;4.20;91.90;;;;;;21082354;28;20230;-65
2022/01/26 12:00:18;;;;;;;6.93;3.90;;;4.40;91.70;;;;;;21082754;28;20721;-64
2022/01/26 12:10:31;;;;;;;6.33;4.70;;;4.40;91.50;;;;;;21081167;28;20631;-63
2022/01/26 12:51:18;;;;;;;6.63;3.80;;;4.20;90.80;;;;;;21077816;28;20230;-63
2022/01/26 13:08:14;;;;;;;5.47;3.70;;;4.20;91.10;;;;;;21150709;27;20550;-65
2022/01/26 13:29:25;;;;;;;6.40;4.60;;;4.10;91.60;;;;;;21147116;28;20202;-64
2022/01/26 13:50:10;;;;;;;9.00;5.30;;;3.90;92.30;;;;;;21147584;28;20206;-67
2022/01/26 14:00:15;;;;;;;8.53;5.77;;;3.90;92.70;;;;;;21147038;28;20241;-61
2022/01/26 14:10:16;;;;;;;9.97;6.30;;;3.90;93.00;;;;;;21159181;28;20210;-63
2022/01/26 14:20:45;;;;;;;11.27;6.47;;;4.00;93.20;;;;;;21101198;28;20314;-62
2022/01/26 14:31:08;;;;;;;10.37;6.53;;;4.10;92.60;;;;;;21074473;28;20207;-65
2022/01/26 14:51:38;;;;;;;13.97;8.50;;;4.00;92.80;;;;;;21085216;28;20195;-61
2022/01/26 15:29:54;;;;;;;18.93;10.23;;;3.80;92.70;;;;;;21083276;28;20864;-63
2022/01/26 17:47:06;;;;;;;20.87;11.60;;;3.90;93.30;;;;;;21079723;28;20685;-75
2022/01/26 18:17:47;;;;;;;20.03;11.07;;;3.80;93.10;;;;;;21090696;28;20206;-65
2022/01/26 18:59:05;;;;;;;22.97;12.60;;;3.90;93.80;;;;;;21086256;28;20324;-63
2022/01/26 19:09:07;;;;;;;22.57;12.13;;;3.90;93.80;;;;;;21087925;28;20623;-80
2022/01/26 19:19:23;;;;;;;20.63;11.77;;;4.00;93.30;;;;;;21085450;28;20231;-71
2022/01/26 19:30:02;;;;;;;25.90;13.13;;;4.00;93.50;;;;;;21066980;28;20206;-75
2022/01/26 20:00:28;;;;;;;26.70;13.67;;;3.90;92.70;;;;;;21086419;28;20234;-63
2022/01/26 20:10:32;;;;;;;27.27;12.17;;;3.90;92.60;;;;;;21010646;28;20199;-68
2022/01/26 20:20:34;;;;;;;22.33;12.37;;;3.90;92.40;;;;;;20998332;28;20292;-69
2022/01/26 20:30:40;;;;;;;25.10;12.07;;;4.00;92.40;;;;;;20995459;28;20198;-71
2022/01/26 20:40:41;;;;;;;23.73;11.67;;;4.10;92.50;;;;;;21068398;28;20649;-72
2022/01/26 20:50:43;;;;;;;23.57;12.00;;;4.10;92.00;;;;;;21078182;28;20260;-69
2022/01/26 21:00:44;;;;;;;25.20;12.50;;;4.10;91.90;;;;;;21078895;28;20577;-65
2022/01/26 21:10:47;;;;;;;26.77;11.40;;;4.10;92.00;;;;;;21081383;28;20566;-68
2022/01/26 21:21:05;;;;;;;23.13;11.90;;;4.20;92.00;;;;;;21081859;28;20234;-73
2022/01/26 21:31:07;;;;;;;25.03;13.07;;;4.20;92.30;;;;;;21097066;28;20218;-72
2022/01/26 21:41:10;;;;;;;20.50;11.10;;;4.20;92.10;;;;;;21092759;28;20234;-71
2022/01/26 21:51:11;;;;;;;21.10;11.63;;;4.00;91.50;;;;;;21093167;28;20214;-60
2022/01/26 22:01:13;;;;;;;22.43;11.63;;;4.10;91.90;;;;;;21094472;28;20284;-62
2022/01/26 22:11:15;;;;;;;22.83;11.87;;;4.10;91.90;;;;;;21092103;28;20213;-63
2022/01/26 22:21:17;;;;;;;22.70;11.13;;;4.00;91.50;;;;;;21090409;28;20559;-61
2022/01/26 22:31:20;;;;;;;20.80;11.73;;;3.90;91.40;;;;;;21087898;28;20259;-61
2022/01/26 22:41:22;;;;;;;21.63;10.77;;;3.90;91.60;;;;;;21082386;28;20241;-65
2022/01/26 22:51:24;;;;;;;20.70;10.90;;;3.90;91.50;;;;;;21086776;28;20202;-65
2022/01/26 23:11:47;;;;;;;21.87;11.50;;;3.50;91.30;;;;;;21086754;28;20206;-72
2022/01/26 23:21:49;;;;;;;20.13;11.03;;;3.60;91.20;;;;;;21070708;28;20697;-72
